createdAt,value
2017-08-30T00:00:06.781Z,19.30
2017-08-30T00:02:34.863Z,19.20
2017-08-30T00:05:03.699Z,19.20
2017-08-30T00:07:31.779Z,19.10
2017-08-30T00:10:00.659Z,19.20
2017-08-30T00:12:28.733Z,19.20
2017-08-30T00:14:56.884Z,19.20
2017-08-30T00:17:24.999Z,19.20
2017-08-30T00:19:53.330Z,19.10
2017-08-30T00:22:22.219Z,19.10
2017-08-30T00:28:02.097Z,19.10
2017-08-30T00:30:30.195Z,19.10
2017-08-30T00:32:58.342Z,19.10
2017-08-30T00:35:26.422Z,19.10
2017-08-30T00:37:54.508Z,19.10
2017-08-30T00:40:23.353Z,18.90
2017-08-30T00:42:51.436Z,18.90
2017-08-30T00:45:19.515Z,18.90
2017-08-30T00:47:47.600Z,19.00
2017-08-30T00:50:15.696Z,18.90
2017-08-30T00:52:43.776Z,18.90
2017-08-30T00:55:11.858Z,18.90
2017-08-30T00:57:39.953Z,18.90
2017-08-30T01:00:08.028Z,18.90
2017-08-30T01:02:36.098Z,18.90
2017-08-30T01:05:04.187Z,18.70
2017-08-30T01:07:32.263Z,18.70
2017-08-30T01:10:01.111Z,18.70
2017-08-30T01:12:29.180Z,18.70
2017-08-30T01:14:57.266Z,18.70
2017-08-30T01:17:25.333Z,18.80
2017-08-30T01:19:53.424Z,18.60
2017-08-30T01:22:21.526Z,18.60
2017-08-30T01:24:49.627Z,18.70
2017-08-30T01:27:17.699Z,18.60
2017-08-30T01:29:45.837Z,18.70
2017-08-30T01:32:13.913Z,18.70
2017-08-30T01:34:41.983Z,18.80
2017-08-30T01:37:10.066Z,18.70
2017-08-30T01:39:38.135Z,18.60
2017-08-30T01:42:06.235Z,18.60
2017-08-30T01:44:34.302Z,18.60
2017-08-30T01:47:02.387Z,18.60
2017-08-30T01:49:30.456Z,18.50
2017-08-30T01:51:58.523Z,18.60
2017-08-30T01:54:26.610Z,18.50
2017-08-30T01:56:54.684Z,18.50
2017-08-30T01:59:22.771Z,18.30
2017-08-30T02:01:50.850Z,18.30
2017-08-30T02:04:18.928Z,18.40
2017-08-30T02:06:47.003Z,18.30
2017-08-30T02:09:15.092Z,18.10
2017-08-30T02:11:43.179Z,18.10
2017-08-30T02:14:11.264Z,18.10
2017-08-30T02:16:39.347Z,18.00
2017-08-30T02:19:07.425Z,17.80
2017-08-30T02:21:35.507Z,17.90
2017-08-30T02:24:03.592Z,17.90
2017-08-30T02:26:31.682Z,18.00
2017-08-30T02:28:59.779Z,17.80
2017-08-30T02:31:27.885Z,17.60
2017-08-30T02:33:55.975Z,17.80
2017-08-30T02:36:24.065Z,17.90
2017-08-30T02:38:52.152Z,17.80
2017-08-30T02:41:20.249Z,17.90
2017-08-30T02:43:49.103Z,17.60
2017-08-30T02:46:17.183Z,17.60
2017-08-30T02:48:45.263Z,17.70
2017-08-30T02:51:13.352Z,17.60
2017-08-30T02:53:42.220Z,17.70
2017-08-30T02:56:10.307Z,17.60
2017-08-30T02:58:38.387Z,17.70
2017-08-30T03:01:07.236Z,17.40
2017-08-30T03:03:35.317Z,17.40
2017-08-30T03:06:03.388Z,17.40
2017-08-30T03:08:31.468Z,17.30
2017-08-30T03:10:59.551Z,17.50
2017-08-30T03:13:27.636Z,17.40
2017-08-30T03:15:55.715Z,17.50
2017-08-30T03:18:23.791Z,17.50
2017-08-30T03:20:51.879Z,17.50
2017-08-30T03:23:19.968Z,17.40
2017-08-30T03:25:48.068Z,17.20
2017-08-30T03:28:16.154Z,17.40
2017-08-30T03:30:44.236Z,17.50
2017-08-30T03:33:12.320Z,17.50
2017-08-30T03:35:40.421Z,17.50
2017-08-30T03:38:08.498Z,17.50
2017-08-30T03:40:36.580Z,17.50
2017-08-30T03:43:04.683Z,17.50
2017-08-30T03:45:32.760Z,17.50
2017-08-30T03:48:00.839Z,17.30
2017-08-30T03:50:28.910Z,17.40
2017-08-30T03:52:57.009Z,17.30
2017-08-30T03:55:25.101Z,17.30
2017-08-30T03:57:53.178Z,17.40
2017-08-30T04:00:21.272Z,17.30
2017-08-30T04:02:49.369Z,17.30
2017-08-30T04:05:17.454Z,17.20
2017-08-30T04:07:45.546Z,17.10
2017-08-30T04:10:13.635Z,17.10
2017-08-30T04:12:41.713Z,17.00
2017-08-30T04:15:09.803Z,17.10
2017-08-30T04:17:37.893Z,17.20
2017-08-30T04:20:05.976Z,17.00
2017-08-30T04:22:34.054Z,17.20
2017-08-30T04:25:02.150Z,17.20
2017-08-30T04:27:30.227Z,17.00
2017-08-30T04:29:59.087Z,17.00
2017-08-30T04:32:27.175Z,17.00
2017-08-30T04:34:55.267Z,17.00
2017-08-30T04:37:24.123Z,16.90
2017-08-30T04:39:52.206Z,16.80
2017-08-30T04:42:20.299Z,16.90
2017-08-30T04:44:48.379Z,16.90
2017-08-30T04:47:16.475Z,16.80
2017-08-30T04:49:44.564Z,16.80
2017-08-30T04:52:12.662Z,16.90
2017-08-30T04:54:41.527Z,17.10
2017-08-30T04:57:09.632Z,17.00
2017-08-30T04:59:38.473Z,17.20
2017-08-30T05:02:06.558Z,17.10
2017-08-30T05:04:34.646Z,17.20
2017-08-30T05:07:02.744Z,17.30
2017-08-30T05:09:30.835Z,17.20
2017-08-30T05:11:58.925Z,17.20
2017-08-30T05:14:27.017Z,17.30
2017-08-30T05:16:55.098Z,17.20
2017-08-30T05:19:23.188Z,17.20
2017-08-30T05:21:51.280Z,17.20
2017-08-30T05:24:19.370Z,17.30
2017-08-30T05:26:47.450Z,17.30
2017-08-30T05:29:15.610Z,17.40
2017-08-30T05:31:43.687Z,17.50
2017-08-30T05:34:11.772Z,17.60
2017-08-30T05:36:39.863Z,17.70
2017-08-30T05:39:07.943Z,17.90
2017-08-30T05:41:36.028Z,18.00
2017-08-30T05:44:04.107Z,18.10
2017-08-30T05:46:32.201Z,18.20
2017-08-30T05:49:00.296Z,18.40
2017-08-30T05:51:28.391Z,18.60
2017-08-30T05:53:56.472Z,18.50
2017-08-30T05:56:24.563Z,18.90
2017-08-30T05:58:52.649Z,19.20
2017-08-30T06:01:20.739Z,19.50
2017-08-30T06:03:48.820Z,19.60
2017-08-30T06:06:17.312Z,19.80
2017-08-30T06:08:45.401Z,19.90
2017-08-30T06:11:13.482Z,20.00
2017-08-30T06:13:41.563Z,20.20
2017-08-30T06:16:09.639Z,20.10
2017-08-30T06:18:37.739Z,20.10
2017-08-30T06:21:05.825Z,20.30
2017-08-30T06:23:33.906Z,20.50
2017-08-30T06:26:01.976Z,20.70
2017-08-30T06:28:30.067Z,21.00
2017-08-30T06:30:58.903Z,21.00
2017-08-30T06:33:26.978Z,21.00
2017-08-30T06:35:55.064Z,21.30
2017-08-30T06:38:23.135Z,21.70
2017-08-30T06:40:51.231Z,22.10
2017-08-30T06:43:20.072Z,21.90
2017-08-30T06:45:48.153Z,21.90
2017-08-30T06:48:16.232Z,21.70
2017-08-30T06:50:44.319Z,21.60
2017-08-30T06:53:12.394Z,21.70
2017-08-30T06:55:41.250Z,21.50
2017-08-30T06:58:09.319Z,21.50
2017-08-30T07:00:37.747Z,22.10
2017-08-30T07:03:05.823Z,22.10
2017-08-30T07:05:33.894Z,22.40
2017-08-30T07:08:01.990Z,22.20
2017-08-30T07:10:30.063Z,22.00
2017-08-30T07:12:58.148Z,21.70
2017-08-30T07:15:26.219Z,21.80
2017-08-30T07:17:54.307Z,21.90
2017-08-30T07:20:22.372Z,22.00
2017-08-30T07:22:50.452Z,22.30
2017-08-30T07:25:19.303Z,23.40
2017-08-30T07:27:47.387Z,23.30
2017-08-30T07:30:15.459Z,23.50
2017-08-30T07:32:43.544Z,23.60
2017-08-30T07:35:11.624Z,23.60
2017-08-30T07:37:39.720Z,23.80
2017-08-30T07:40:07.792Z,23.70
2017-08-30T07:42:35.859Z,23.70
2017-08-30T07:45:03.947Z,23.80
2017-08-30T07:47:32.019Z,24.10
2017-08-30T07:50:00.104Z,24.60
2017-08-30T07:52:28.175Z,24.30
2017-08-30T07:54:56.260Z,24.30
2017-08-30T07:57:24.335Z,25.10
2017-08-30T07:59:52.422Z,25.60
2017-08-30T08:02:20.503Z,25.10
2017-08-30T08:04:48.588Z,24.00
2017-08-30T08:07:16.659Z,23.80
2017-08-30T08:09:44.751Z,24.70
2017-08-30T08:12:12.831Z,25.20
2017-08-30T08:14:40.911Z,25.20
2017-08-30T08:17:08.997Z,25.40
2017-08-30T08:19:37.071Z,25.90
2017-08-30T08:22:05.151Z,25.30
2017-08-30T08:24:33.222Z,25.70
2017-08-30T08:27:01.304Z,25.40
2017-08-30T08:29:30.144Z,25.80
2017-08-30T08:31:58.224Z,25.70
2017-08-30T08:34:26.305Z,25.70
2017-08-30T08:36:54.393Z,26.30
2017-08-30T08:39:22.468Z,25.90
2017-08-30T08:41:50.552Z,25.70
2017-08-30T08:44:19.394Z,26.30
2017-08-30T08:46:47.483Z,26.30
2017-08-30T08:49:15.563Z,26.30
2017-08-30T08:51:43.635Z,26.70
2017-08-30T08:54:11.725Z,27.00
2017-08-30T08:56:39.802Z,26.70
2017-08-30T08:59:07.883Z,26.80
2017-08-30T09:01:35.969Z,26.90
2017-08-30T09:04:04.043Z,27.20
2017-08-30T09:06:32.111Z,27.90
2017-08-30T09:09:00.199Z,28.00
2017-08-30T09:11:28.277Z,28.00
2017-08-30T09:13:56.361Z,28.50
2017-08-30T09:16:24.452Z,28.60
2017-08-30T09:18:52.551Z,28.10
2017-08-30T09:21:20.619Z,27.50
2017-08-30T09:23:49.466Z,27.30
2017-08-30T09:26:17.551Z,27.30
2017-08-30T09:28:45.627Z,28.50
2017-08-30T09:31:13.715Z,28.80
2017-08-30T09:33:41.799Z,29.30
2017-08-30T09:36:09.918Z,30.10
2017-08-30T09:38:37.984Z,29.70
2017-08-30T09:41:06.068Z,30.30
2017-08-30T09:43:34.134Z,31.20
2017-08-30T09:46:03.011Z,30.70
2017-08-30T09:48:31.080Z,30.70
2017-08-30T09:50:59.181Z,31.00
2017-08-30T09:53:27.257Z,31.00
2017-08-30T09:55:55.337Z,30.50
2017-08-30T09:58:23.428Z,31.40
2017-08-30T10:00:51.510Z,31.00
2017-08-30T10:03:19.594Z,31.20
2017-08-30T10:05:47.668Z,31.10
2017-08-30T10:08:15.751Z,31.20
2017-08-30T10:10:44.592Z,31.40
2017-08-30T10:13:12.681Z,31.30
2017-08-30T10:15:40.757Z,30.70
2017-08-30T10:18:08.834Z,30.50
2017-08-30T10:20:36.906Z,30.30
2017-08-30T10:23:04.990Z,30.10
2017-08-30T10:25:33.071Z,29.90
2017-08-30T10:28:01.161Z,30.80
2017-08-30T10:30:29.252Z,31.10
2017-08-30T10:32:57.323Z,31.30
2017-08-30T10:35:25.422Z,31.10
2017-08-30T10:37:53.498Z,31.30
2017-08-30T10:40:21.584Z,31.80
2017-08-30T10:42:50.426Z,31.60
2017-08-30T10:45:18.516Z,31.60
2017-08-30T10:47:46.592Z,32.00
2017-08-30T10:50:14.668Z,32.30
2017-08-30T10:52:42.748Z,32.00
2017-08-30T10:55:10.853Z,32.20
2017-08-30T10:57:38.930Z,32.60
2017-08-30T11:00:07.011Z,32.50
2017-08-30T11:02:35.092Z,32.60
2017-08-30T11:05:03.181Z,32.00
2017-08-30T11:07:31.252Z,32.60
2017-08-30T11:09:59.333Z,32.80
2017-08-30T11:12:27.415Z,32.40
2017-08-30T11:14:55.487Z,32.40
2017-08-30T11:17:23.570Z,32.40
2017-08-30T11:19:51.650Z,33.20
2017-08-30T11:22:19.726Z,32.80
2017-08-30T11:24:47.803Z,31.80
2017-08-30T11:27:15.887Z,32.30
2017-08-30T11:29:43.955Z,32.40
2017-08-30T11:32:12.808Z,32.80
2017-08-30T11:34:40.879Z,32.80
2017-08-30T11:37:08.950Z,32.80
2017-08-30T11:39:37.024Z,34.00
2017-08-30T11:42:05.108Z,34.00
2017-08-30T11:44:33.175Z,33.30
2017-08-30T11:47:01.243Z,33.60
2017-08-30T11:49:29.319Z,34.10
2017-08-30T11:51:57.391Z,33.30
2017-08-30T11:54:25.470Z,32.90
2017-08-30T11:56:53.547Z,32.90
2017-08-30T11:59:21.632Z,33.20
2017-08-30T12:01:49.708Z,33.30
2017-08-30T12:04:17.799Z,32.50
2017-08-30T12:06:46.648Z,33.30
2017-08-30T12:09:14.735Z,33.20
2017-08-30T12:11:42.815Z,33.10
2017-08-30T12:14:10.901Z,32.80
2017-08-30T12:16:39.741Z,32.70
2017-08-30T12:19:07.821Z,32.70
2017-08-30T12:21:35.893Z,32.30
2017-08-30T12:24:03.969Z,31.80
2017-08-30T12:26:32.064Z,32.60
2017-08-30T12:29:00.911Z,33.80
2017-08-30T12:31:29.000Z,33.70
2017-08-30T12:33:57.072Z,35.30
2017-08-30T12:36:25.147Z,33.70
2017-08-30T12:38:58.913Z,33.80
2017-08-30T12:41:26.995Z,33.00
2017-08-30T12:43:55.068Z,33.10
2017-08-30T12:46:23.145Z,33.20
2017-08-30T12:48:51.215Z,32.50
2017-08-30T12:51:19.311Z,32.10
2017-08-30T12:53:47.396Z,32.40
2017-08-30T12:56:15.468Z,31.40
2017-08-30T12:58:43.548Z,31.70
2017-08-30T13:01:12.400Z,31.80
2017-08-30T13:03:40.485Z,31.70
2017-08-30T13:06:08.551Z,31.70
2017-08-30T13:08:36.641Z,31.50
2017-08-30T13:11:05.487Z,32.30
2017-08-30T13:13:33.566Z,32.30
2017-08-30T13:16:01.648Z,32.30
2017-08-30T13:18:29.729Z,32.70
2017-08-30T13:20:57.806Z,32.70
2017-08-30T13:23:26.655Z,32.90
2017-08-30T13:25:54.731Z,32.90
2017-08-30T13:28:22.821Z,32.90
2017-08-30T13:30:50.895Z,32.40
2017-08-30T13:33:19.742Z,32.10
2017-08-30T13:35:47.814Z,32.10
2017-08-30T13:38:15.933Z,32.10
2017-08-30T13:40:43.999Z,32.50
2017-08-30T13:43:12.836Z,32.00
2017-08-30T13:45:40.916Z,31.90
2017-08-30T13:48:08.998Z,32.80
2017-08-30T13:50:37.088Z,32.80
2017-08-30T13:53:05.169Z,32.10
2017-08-30T13:55:34.012Z,32.20
2017-08-30T13:58:02.082Z,32.20
2017-08-30T14:00:30.161Z,32.00
2017-08-30T14:02:58.231Z,31.80
2017-08-30T14:05:26.315Z,31.20
2017-08-30T14:07:54.396Z,30.90
2017-08-30T14:10:22.485Z,31.00
2017-08-30T14:12:50.555Z,31.00
2017-08-30T14:15:18.640Z,30.90
2017-08-30T14:17:46.716Z,30.70
2017-08-30T14:20:14.812Z,30.70
2017-08-30T14:22:42.897Z,30.60
2017-08-30T14:25:10.977Z,30.50
2017-08-30T14:27:39.059Z,30.40
2017-08-30T14:30:07.137Z,30.20
2017-08-30T14:32:35.229Z,30.30
2017-08-30T14:35:03.311Z,30.50
2017-08-30T14:37:31.405Z,30.30
2017-08-30T14:40:00.579Z,30.60
2017-08-30T14:42:28.659Z,30.60
2017-08-30T14:44:56.734Z,30.50
2017-08-30T14:47:24.824Z,30.50
2017-08-30T14:49:52.902Z,30.40
2017-08-30T14:52:20.992Z,30.50
2017-08-30T14:54:49.132Z,30.40
2017-08-30T14:57:17.233Z,30.50
2017-08-30T14:59:45.312Z,30.50
2017-08-30T15:02:14.179Z,30.70
2017-08-30T15:04:42.271Z,30.70
2017-08-30T15:07:11.112Z,30.60
2017-08-30T15:09:39.272Z,30.60
2017-08-30T15:12:07.348Z,30.60
2017-08-30T15:14:35.437Z,30.50
2017-08-30T15:17:03.517Z,30.80
2017-08-30T15:19:31.617Z,30.90
2017-08-30T15:21:59.865Z,30.90
2017-08-30T15:24:27.955Z,30.80
2017-08-30T15:26:56.126Z,30.60
2017-08-30T15:29:24.187Z,30.50
2017-08-30T15:31:52.463Z,30.50
2017-08-30T15:34:21.448Z,30.30
2017-08-30T15:36:49.728Z,30.30
2017-08-30T15:39:17.988Z,30.20
2017-08-30T15:41:46.063Z,29.90
2017-08-30T15:44:14.158Z,30.00
2017-08-30T15:46:42.227Z,30.10
2017-08-30T15:49:10.304Z,30.10
2017-08-30T15:51:38.395Z,30.10
2017-08-30T15:54:06.474Z,30.00
2017-08-30T15:56:34.564Z,29.90
2017-08-30T15:59:02.642Z,29.90
2017-08-30T16:01:30.736Z,30.00
2017-08-30T16:03:58.816Z,29.90
2017-08-30T16:06:26.899Z,29.90
2017-08-30T16:08:54.992Z,30.00
2017-08-30T16:11:23.084Z,30.00
2017-08-30T16:13:51.164Z,29.90
2017-08-30T16:16:19.243Z,29.90
2017-08-30T16:18:47.323Z,29.90
2017-08-30T16:21:15.412Z,29.90
2017-08-30T16:23:44.257Z,29.80
2017-08-30T16:26:12.335Z,29.80
2017-08-30T16:28:40.419Z,29.80
2017-08-30T16:31:08.495Z,29.80
2017-08-30T16:33:37.351Z,29.80
2017-08-30T16:36:05.436Z,29.80
2017-08-30T16:38:33.520Z,29.80
2017-08-30T16:41:01.604Z,29.70
2017-08-30T16:43:30.451Z,29.70
2017-08-30T16:45:59.299Z,29.70
2017-08-30T16:48:27.379Z,29.70
2017-08-30T16:50:55.455Z,29.60
2017-08-30T16:53:23.536Z,29.50
2017-08-30T16:55:51.659Z,29.40
2017-08-30T16:58:19.712Z,29.30
2017-08-30T17:00:47.809Z,29.30
2017-08-30T17:03:15.889Z,29.20
2017-08-30T17:05:43.971Z,29.10
2017-08-30T17:08:12.053Z,29.10
2017-08-30T17:10:40.142Z,29.00
2017-08-30T17:13:08.226Z,29.00
2017-08-30T17:15:36.318Z,28.90
2017-08-30T17:18:04.398Z,28.90
2017-08-30T17:20:33.246Z,28.70
2017-08-30T17:23:01.327Z,28.70
2017-08-30T17:25:29.424Z,28.60
2017-08-30T17:27:57.517Z,28.70
2017-08-30T17:30:25.595Z,28.60
2017-08-30T17:32:53.683Z,28.60
2017-08-30T17:35:22.540Z,28.50
2017-08-30T17:37:50.627Z,28.50
2017-08-30T17:40:18.709Z,28.40
2017-08-30T17:42:46.799Z,28.30
2017-08-30T17:45:14.883Z,28.30
2017-08-30T17:47:42.963Z,28.10
2017-08-30T17:50:11.051Z,27.90
2017-08-30T17:52:39.149Z,28.00
2017-08-30T17:55:07.251Z,27.90
2017-08-30T17:57:35.343Z,27.80
2017-08-30T18:00:03.453Z,27.70
2017-08-30T18:02:31.572Z,27.50
2017-08-30T18:04:59.653Z,27.50
2017-08-30T18:07:27.726Z,27.30
2017-08-30T18:09:55.820Z,27.20
2017-08-30T18:12:23.904Z,27.20
2017-08-30T18:14:51.992Z,27.40
2017-08-30T18:17:20.072Z,27.50
2017-08-30T18:19:48.173Z,27.50
2017-08-30T18:22:16.259Z,27.70
2017-08-30T18:24:44.350Z,27.60
2017-08-30T18:27:12.430Z,28.00
2017-08-30T18:29:40.536Z,28.00
2017-08-30T18:32:08.640Z,27.90
2017-08-30T18:34:36.733Z,27.80
2017-08-30T18:37:04.808Z,27.80
2017-08-30T18:39:32.891Z,27.60
2017-08-30T18:42:00.985Z,27.40
2017-08-30T18:44:29.062Z,27.30
2017-08-30T18:49:37.819Z,27.00
2017-08-30T18:52:05.913Z,27.10
2017-08-30T18:54:34.846Z,27.00
2017-08-30T19:06:23.713Z,26.80
2017-08-30T19:08:51.799Z,26.70
2017-08-30T19:11:19.902Z,26.60
2017-08-30T19:13:47.999Z,26.50
2017-08-30T19:16:16.485Z,26.50
2017-08-30T19:27:43.963Z,26.40
2017-08-30T19:30:12.043Z,26.50
2017-08-30T19:32:40.135Z,26.30
2017-08-30T19:38:09.003Z,26.30
2017-08-30T19:40:37.092Z,26.30
2017-08-30T19:43:05.199Z,26.30
2017-08-30T19:45:33.283Z,26.20
2017-08-30T19:48:01.487Z,26.10
2017-08-30T19:55:06.639Z,26.00
2017-08-30T19:57:34.724Z,25.90
2017-08-30T20:00:02.903Z,26.10
2017-08-30T20:02:31.090Z,26.00
2017-08-30T20:04:59.239Z,26.00
2017-08-30T20:07:27.314Z,25.80
2017-08-30T20:09:55.511Z,25.70
2017-08-30T20:12:23.665Z,25.70
2017-08-30T20:14:51.742Z,25.60
2017-08-30T20:17:19.833Z,25.70
2017-08-30T20:19:47.923Z,25.70
2017-08-30T20:22:16.025Z,25.70
2017-08-30T20:24:44.104Z,25.50
2017-08-30T20:28:41.197Z,25.50
2017-08-30T20:31:09.293Z,25.60
2017-08-30T20:33:37.375Z,25.40
2017-08-30T20:36:05.470Z,25.30
2017-08-30T20:38:33.559Z,25.40
2017-08-30T20:41:01.651Z,25.30
2017-08-30T20:43:29.750Z,25.40
2017-08-30T20:45:57.841Z,25.30
2017-08-30T20:48:25.917Z,25.20
2017-08-30T20:50:54.083Z,25.20
2017-08-30T20:53:22.174Z,24.90
2017-08-30T20:55:50.258Z,24.80
2017-08-30T20:58:18.369Z,24.90
2017-08-30T21:00:46.650Z,24.90
2017-08-30T21:03:14.756Z,24.90
2017-08-30T21:05:42.837Z,24.70
2017-08-30T21:08:10.943Z,24.50
2017-08-30T21:10:39.800Z,24.60
2017-08-30T21:13:07.887Z,24.60
2017-08-30T21:15:36.144Z,24.50
2017-08-30T21:18:04.243Z,24.40
2017-08-30T21:20:33.167Z,24.60
2017-08-30T21:23:01.259Z,24.60
2017-08-30T21:25:29.352Z,24.80
2017-08-30T21:27:57.449Z,24.80
2017-08-30T21:30:25.548Z,24.60
2017-08-30T21:32:53.647Z,24.60
2017-08-30T21:35:21.751Z,23.70
2017-08-30T21:37:49.832Z,22.90
2017-08-30T21:40:18.692Z,23.10
2017-08-30T21:42:46.775Z,23.10
2017-08-30T21:45:14.863Z,23.10
2017-08-30T21:47:43.707Z,23.10
2017-08-30T21:50:11.791Z,23.10
2017-08-30T21:52:39.871Z,23.00
2017-08-30T21:55:07.968Z,23.00
2017-08-30T21:57:36.049Z,23.10
2017-08-30T22:00:04.149Z,23.10
2017-08-30T22:02:32.233Z,23.20
2017-08-30T22:05:00.315Z,23.10
2017-08-30T22:07:28.425Z,23.10
2017-08-30T22:09:56.507Z,23.10
2017-08-30T22:12:24.612Z,23.00
2017-08-30T22:14:52.700Z,23.20
2017-08-30T22:17:20.791Z,23.30
2017-08-30T22:19:49.649Z,23.10
2017-08-30T22:22:17.735Z,23.10
2017-08-30T22:24:45.820Z,22.80
2017-08-30T22:27:13.917Z,22.80
2017-08-30T22:29:42.026Z,22.60
2017-08-30T22:32:10.099Z,22.60
2017-08-30T22:34:38.200Z,22.40
2017-08-30T22:37:06.379Z,22.60
2017-08-30T22:39:34.471Z,22.20
2017-08-30T22:42:02.560Z,21.90
2017-08-30T22:44:30.652Z,21.70
2017-08-30T22:46:58.738Z,21.80
2017-08-30T22:49:26.879Z,21.70
2017-08-30T22:51:54.955Z,21.70
2017-08-30T22:54:23.149Z,21.30
2017-08-30T22:56:51.230Z,20.40
2017-08-30T22:59:20.088Z,19.90
2017-08-30T23:01:48.167Z,19.90
2017-08-30T23:04:16.242Z,19.90
2017-08-30T23:06:44.335Z,20.00
2017-08-30T23:09:12.516Z,20.00
2017-08-30T23:11:41.364Z,19.90
2017-08-30T23:14:09.435Z,19.90
2017-08-30T23:16:37.518Z,20.00
2017-08-30T23:19:05.607Z,19.90
2017-08-30T23:21:33.768Z,20.00
2017-08-30T23:24:01.855Z,20.00
2017-08-30T23:26:29.943Z,20.00
2017-08-30T23:28:58.796Z,19.80
2017-08-30T23:31:26.901Z,19.80
2017-08-30T23:33:54.980Z,19.80
2017-08-30T23:36:23.057Z,19.60
2017-08-30T23:38:51.132Z,19.50
2017-08-30T23:41:19.203Z,19.50
2017-08-30T23:43:47.292Z,19.50
2017-08-30T23:46:15.416Z,19.40
2017-08-30T23:48:43.479Z,19.50
2017-08-30T23:51:11.555Z,19.40
2017-08-30T23:53:39.689Z,19.60
2017-08-30T23:56:07.768Z,19.60
2017-08-30T23:58:35.859Z,19.70
